Time;durP1;ratioP1;P1;durP2;ratioP2;P2;SDS_P1;SDS_P2;PMS_P1;PMS_P2;Temp;Humidity;BMP_temperature;BMP_pressure;BME280_temperature;BME280_humidity;BME280_pressure;Samples;Min_cycle;Max_cycle;Signal;HPM_P1;HPM_P2
2022/11/25 00:01:10;;;;;;;15.68;3.45;;;7.20;99.90;;;;;;5094503;28;20500;-80
2022/11/25 00:03:37;;;;;;;16.85;4.05;;;7.20;99.90;;;;;;5095708;28;20078;-80
2022/11/25 00:06:11;;;;;;;17.10;3.55;;;7.20;99.90;;;;;;5090140;28;20046;-78
2022/11/25 00:08:37;;;;;;;16.13;3.17;;;7.20;99.90;;;;;;5113235;27;20047;-79
2022/11/25 00:11:05;;;;;;;15.05;3.42;;;7.20;99.90;;;;;;5098677;28;20043;-80
2022/11/25 00:13:31;;;;;;;13.40;3.70;;;7.20;99.90;;;;;;5095236;28;20050;-79
2022/11/25 00:16:03;;;;;;;16.95;4.03;;;7.20;99.90;;;;;;5116192;28;20039;-79
2022/11/25 00:18:32;;;;;;;15.98;4.05;;;7.30;99.90;;;;;;5079736;28;20054;-80
2022/11/25 00:21:03;;;;;;;15.57;3.45;;;7.20;99.90;;;;;;5081260;28;20053;-80
2022/11/25 00:23:29;;;;;;;18.25;4.13;;;7.70;99.90;;;;;;5100830;28;20488;-79
2022/11/25 00:25:55;;;;;;;16.95;3.90;;;8.30;99.90;;;;;;5097435;28;20031;-79
2022/11/25 00:28:21;;;;;;;13.07;3.28;;;7.90;99.90;;;;;;5114206;28;20035;-78
2022/11/25 00:30:46;;;;;;;14.18;3.15;;;7.70;99.90;;;;;;5069045;28;20048;-78
2022/11/25 00:33:12;;;;;;;17.13;3.78;;;7.30;99.90;;;;;;5073290;28;20038;-78
2022/11/25 00:35:38;;;;;;;17.95;4.00;;;7.40;99.90;;;;;;5074556;28;20054;-78
2022/11/25 00:38:03;;;;;;;17.15;4.07;;;7.70;99.90;;;;;;5055964;28;20410;-78
2022/11/25 00:40:29;;;;;;;15.20;3.60;;;7.40;99.90;;;;;;5046721;28;20154;-78
2022/11/25 00:45:39;;;;;;;18.33;3.33;;;7.40;99.90;;;;;;5078876;28;20108;-78
2022/11/25 00:48:04;;;;;;;17.00;3.78;;;7.40;99.90;;;;;;5060682;28;20473;-78
2022/11/25 00:50:30;;;;;;;18.60;3.97;;;7.80;99.90;;;;;;5042175;28;20506;-78
2022/11/25 00:52:56;;;;;;;14.68;3.15;;;7.40;99.90;;;;;;5061677;28;20508;-78
2022/11/25 00:55:21;;;;;;;17.27;3.60;;;7.40;99.90;;;;;;5065015;28;20036;-78
2022/11/25 00:57:47;;;;;;;15.35;3.25;;;7.40;99.90;;;;;;5077440;28;20137;-79
2022/11/25 01:00:13;;;;;;;18.95;4.32;;;7.40;99.90;;;;;;5073869;28;20052;-78
2022/11/25 01:02:39;;;;;;;14.27;3.60;;;7.50;99.90;;;;;;5065203;28;20046;-78
2022/11/25 01:05:05;;;;;;;15.02;3.53;;;7.50;99.90;;;;;;5076624;28;20032;-78
2022/11/25 01:07:31;;;;;;;12.20;3.60;;;7.50;99.90;;;;;;5073188;28;20044;-78
2022/11/25 01:09:59;;;;;;;18.50;4.38;;;7.50;99.90;;;;;;5076985;28;20045;-78
2022/11/25 01:12:25;;;;;;;16.90;3.85;;;7.50;99.90;;;;;;5076188;28;20031;-77
2022/11/25 01:14:51;;;;;;;16.73;3.72;;;7.50;99.90;;;;;;5079293;28;20044;-77
2022/11/25 01:17:16;;;;;;;16.55;4.00;;;7.50;99.90;;;;;;5090027;28;20035;-77
2022/11/25 01:19:42;;;;;;;15.00;3.95;;;7.50;99.90;;;;;;5081566;28;20032;-78
2022/11/25 01:22:08;;;;;;;16.48;3.53;;;7.50;99.90;;;;;;5083145;28;20043;-78
2022/11/25 01:24:34;;;;;;;18.85;4.28;;;7.90;99.90;;;;;;5077340;28;20401;-77
2022/11/25 01:27:00;;;;;;;19.30;3.90;;;7.40;99.90;;;;;;5075596;28;20040;-77
2022/11/25 01:29:25;;;;;;;17.00;4.15;;;7.50;99.90;;;;;;5059883;28;20129;-78
2022/11/25 01:31:56;;;;;;;18.00;3.83;;;7.40;99.90;;;;;;5063942;28;20259;-78
2022/11/25 01:34:25;;;;;;;15.90;3.80;;;7.40;99.90;;;;;;5075325;28;20046;-77
2022/11/25 01:36:51;;;;;;;16.55;4.22;;;7.70;99.90;;;;;;5076549;28;20036;-79
2022/11/25 01:39:22;;;;;;;13.05;3.53;;;7.40;99.90;;;;;;5056638;28;20666;-78
2022/11/25 01:41:48;;;;;;;17.17;3.83;;;7.50;99.90;;;;;;5082130;28;20044;-78
2022/11/25 01:44:18;;;;;;;19.92;4.05;;;7.40;99.90;;;;;;5076029;28;20082;-78
2022/11/25 01:46:55;;;;;;;19.08;3.92;;;7.30;99.90;;;;;;5079634;28;20064;-77
2022/11/25 01:50:09;;;;;;;18.60;4.10;;;7.30;99.90;;;;;;5075254;28;20529;-78
2022/11/25 01:52:39;;;;;;;18.33;4.07;;;7.30;99.90;;;;;;5071191;28;20040;-78
2022/11/25 01:55:13;;;;;;;15.63;4.40;;;7.30;99.90;;;;;;5058925;28;20036;-78
2022/11/25 01:57:47;;;;;;;16.23;4.10;;;7.30;99.90;;;;;;5080315;28;20569;-78
2022/11/25 02:00:14;;;;;;;17.35;3.85;;;7.40;99.90;;;;;;5063638;28;20106;-78
2022/11/25 02:02:40;;;;;;;19.02;3.75;;;7.40;99.90;;;;;;5075295;28;20126;-78
2022/11/25 02:05:14;;;;;;;19.98;3.83;;;7.40;99.90;;;;;;5077082;28;20121;-78
2022/11/25 02:07:43;;;;;;;18.65;4.60;;;7.40;99.90;;;;;;5081224;28;20173;-78
2022/11/25 02:10:30;;;;;;;15.07;4.70;;;7.40;99.90;;;;;;5079961;28;20131;-78
2022/11/25 02:12:58;;;;;;;15.00;3.65;;;7.40;99.90;;;;;;5076638;28;20036;-79
2022/11/25 02:15:25;;;;;;;16.77;3.83;;;7.50;99.90;;;;;;5074133;28;20044;-78
2022/11/25 02:17:51;;;;;;;15.48;3.80;;;7.40;99.90;;;;;;5066209;28;20086;-78
2022/11/25 02:20:19;;;;;;;16.75;3.92;;;7.40;99.90;;;;;;5070762;28;20040;-78
2022/11/25 02:23:16;;;;;;;13.80;3.65;;;7.40;99.90;;;;;;5075566;28;20032;-78
2022/11/25 02:25:43;;;;;;;18.85;4.43;;;7.40;99.90;;;;;;5080744;28;20040;-77
2022/11/25 02:28:12;;;;;;;16.63;3.70;;;7.40;99.90;;;;;;5073684;28;20481;-78
2022/11/25 02:30:38;;;;;;;16.20;4.10;;;7.40;99.90;;;;;;5062314;28;20084;-80
2022/11/25 02:33:04;;;;;;;18.60;4.25;;;7.40;99.90;;;;;;5071564;28;20048;-81
2022/11/25 02:35:47;;;;;;;17.00;3.70;;;7.40;99.90;;;;;;5081534;28;20401;-79
2022/11/25 02:38:13;;;;;;;;;;;7.40;99.90;;;;;;5056993;28;20048;-81
2022/11/25 02:41:01;;;;;;;15.00;4.25;;;7.40;99.90;;;;;;5062378;28;19916;-80
2022/11/25 02:43:27;;;;;;;18.02;4.90;;;7.50;99.90;;;;;;5074347;28;20037;-79
2022/11/25 02:46:00;;;;;;;16.85;4.28;;;7.40;99.90;;;;;;5076582;28;20137;-78
2022/11/25 02:48:28;;;;;;;15.60;4.43;;;7.40;99.90;;;;;;5073039;28;20432;-78
2022/11/25 02:50:54;;;;;;;13.98;3.70;;;7.40;99.90;;;;;;5089387;28;20109;-78
2022/11/25 02:53:20;;;;;;;18.38;4.30;;;7.40;99.90;;;;;;5078580;28;20044;-77
2022/11/25 02:55:46;;;;;;;15.43;4.43;;;7.40;99.90;;;;;;5055897;28;20493;-78
2022/11/25 02:58:12;;;;;;;18.20;4.55;;;7.40;99.90;;;;;;5045337;28;20036;-79
2022/11/25 03:00:39;;;;;;;15.13;4.03;;;7.40;99.90;;;;;;5069038;28;20106;-78
2022/11/25 03:03:05;;;;;;;14.40;4.15;;;7.40;99.90;;;;;;5058564;28;20039;-79
2022/11/25 03:05:31;;;;;;;20.38;4.68;;;7.40;99.90;;;;;;5075335;28;20641;-79
2022/11/25 03:07:56;;;;;;;18.50;4.30;;;7.40;99.90;;;;;;5080892;28;20040;-80
2022/11/25 03:10:23;;;;;;;16.15;4.15;;;7.40;99.90;;;;;;5080777;28;20044;-79
2022/11/25 03:12:49;;;;;;;17.58;4.55;;;7.40;99.90;;;;;;5056536;28;20448;-79
2022/11/25 03:15:15;;;;;;;21.17;4.57;;;7.40;99.90;;;;;;5055995;28;20068;-80
2022/11/25 03:17:41;;;;;;;17.60;4.10;;;7.40;99.90;;;;;;5080653;28;20048;-79
2022/11/25 03:20:07;;;;;;;19.33;4.65;;;7.40;99.90;;;;;;5064491;28;20047;-79
2022/11/25 03:22:33;;;;;;;15.13;4.03;;;7.40;99.90;;;;;;5062592;28;20359;-78
2022/11/25 03:24:59;;;;;;;17.92;4.40;;;7.50;99.90;;;;;;5075403;28;20044;-77
2022/11/25 03:27:25;;;;;;;17.65;5.00;;;7.50;99.90;;;;;;5076234;28;20453;-78
2022/11/25 03:29:51;;;;;;;15.88;4.53;;;7.40;99.90;;;;;;5072254;28;20052;-79
2022/11/25 03:32:16;;;;;;;17.98;4.40;;;7.50;99.90;;;;;;5080678;28;20033;-79
2022/11/25 03:34:42;;;;;;;25.65;4.97;;;7.50;99.90;;;;;;5072690;28;20036;-79
2022/11/25 03:37:08;;;;;;;14.15;4.13;;;7.50;99.90;;;;;;5061316;28;20474;-79
2022/11/25 03:39:36;;;;;;;15.82;4.55;;;7.50;99.90;;;;;;5075495;28;20063;-79
2022/11/25 03:42:02;;;;;;;21.27;5.32;;;7.50;99.90;;;;;;5063932;28;20401;-78
2022/11/25 03:44:27;;;;;;;18.00;4.57;;;7.50;99.90;;;;;;5077691;28;20043;-78
2022/11/25 03:46:53;;;;;;;19.77;5.00;;;7.50;99.90;;;;;;5081816;28;20219;-78
2022/11/25 03:49:20;;;;;;;23.05;5.45;;;7.50;99.90;;;;;;5058128;28;20555;-78
2022/11/25 03:51:47;;;;;;;18.67;4.97;;;7.50;99.90;;;;;;5043597;28;20054;-77
2022/11/25 03:54:13;;;;;;;19.55;5.53;;;8.00;99.90;;;;;;5072873;28;20040;-78
2022/11/25 03:56:39;;;;;;;19.30;5.43;;;7.60;99.90;;;;;;5053651;28;20037;-79
2022/11/25 03:59:05;;;;;;;21.23;5.45;;;7.60;99.90;;;;;;5077600;28;20044;-78
2022/11/25 04:01:30;;;;;;;19.80;5.82;;;7.90;99.90;;;;;;5061982;28;20089;-78
2022/11/25 04:03:56;;;;;;;22.85;5.97;;;7.80;99.90;;;;;;5078401;28;20056;-80
2022/11/25 04:06:22;;;;;;;16.60;5.35;;;7.60;99.90;;;;;;5059676;28;20428;-78
2022/11/25 04:08:49;;;;;;;16.90;5.30;;;7.60;99.90;;;;;;5046142;28;20055;-79
2022/11/25 04:11:15;;;;;;;18.77;5.05;;;8.10;99.90;;;;;;5062084;28;20053;-80
2022/11/25 04:13:41;;;;;;;19.42;5.28;;;7.70;99.90;;;;;;5059950;28;20093;-78
2022/11/25 04:16:21;;;;;;;19.63;5.07;;;7.70;99.90;;;;;;5069941;28;20044;-79
2022/11/25 04:18:46;;;;;;;20.92;5.45;;;7.70;99.90;;;;;;5079063;28;20090;-78
2022/11/25 04:21:12;;;;;;;18.70;5.47;;;7.70;99.90;;;;;;5082129;28;20044;-78
2022/11/25 04:23:38;;;;;;;18.58;5.93;;;7.70;99.90;;;;;;5074129;28;20411;-78
2022/11/25 04:26:04;;;;;;;20.80;5.70;;;8.40;99.90;;;;;;5080908;28;20032;-79
2022/11/25 04:28:32;;;;;;;22.95;5.47;;;7.80;99.90;;;;;;5058816;28;20047;-80
2022/11/25 04:30:57;;;;;;;26.38;6.13;;;7.70;99.90;;;;;;5083897;28;20408;-79
2022/11/25 04:33:23;;;;;;;20.13;5.30;;;7.70;99.90;;;;;;5083861;28;20037;-78
2022/11/25 04:35:49;;;;;;;18.27;5.70;;;7.70;99.90;;;;;;5081505;28;20512;-79
2022/11/25 04:38:14;;;;;;;21.63;6.47;;;7.70;99.90;;;;;;5062560;28;20123;-79
2022/11/25 04:40:40;;;;;;;18.40;6.20;;;9.00;99.90;;;;;;5065627;28;20134;-78
2022/11/25 04:43:06;;;;;;;20.08;5.85;;;7.70;99.90;;;;;;5079163;28;20496;-79
2022/11/25 04:45:35;;;;;;;22.55;6.47;;;7.70;99.90;;;;;;5078751;28;20086;-80
2022/11/25 04:48:00;;;;;;;23.08;6.05;;;8.70;99.90;;;;;;5076737;28;20032;-79
2022/11/25 04:50:26;;;;;;;21.02;6.25;;;8.30;99.90;;;;;;5084495;28;20456;-79
2022/11/25 04:52:52;;;;;;;22.08;6.25;;;8.50;99.90;;;;;;5082921;28;20044;-78
2022/11/25 04:55:20;;;;;;;25.60;7.45;;;7.70;99.90;;;;;;5068329;28;20490;-79
2022/11/25 04:57:46;;;;;;;22.92;6.38;;;7.70;99.90;;;;;;5063607;28;20028;-79
2022/11/25 05:00:12;;;;;;;19.50;6.63;;;7.70;99.90;;;;;;5063615;28;20042;-79
2022/11/25 05:02:38;;;;;;;16.92;6.22;;;7.80;99.90;;;;;;5073888;28;20066;-79
2022/11/25 05:05:04;;;;;;;25.67;7.40;;;7.80;99.90;;;;;;5062038;28;20040;-78
2022/11/25 05:07:30;;;;;;;21.80;6.60;;;7.80;99.90;;;;;;5073933;28;20033;-79
2022/11/25 05:09:56;;;;;;;24.95;7.57;;;7.70;99.90;;;;;;5072339;28;20117;-78
2022/11/25 05:12:25;;;;;;;24.15;6.82;;;7.80;99.90;;;;;;5077537;28;20036;-79
2022/11/25 05:14:51;;;;;;;19.90;7.43;;;7.80;99.90;;;;;;5083284;28;20471;-78
2022/11/25 05:17:22;;;;;;;22.63;6.95;;;7.80;99.90;;;;;;5057353;28;20041;-79
2022/11/25 05:19:49;;;;;;;23.92;7.32;;;7.80;99.90;;;;;;5082051;28;20048;-78
2022/11/25 05:22:35;;;;;;;25.63;7.85;;;7.80;99.90;;;;;;5078746;28;20508;-78
2022/11/25 05:25:00;;;;;;;22.90;7.32;;;7.80;99.90;;;;;;5082564;28;20063;-79
2022/11/25 05:27:26;;;;;;;21.63;6.45;;;7.80;99.90;;;;;;5075402;28;20135;-79
2022/11/25 05:29:52;;;;;;;22.40;7.40;;;7.80;99.90;;;;;;5080689;28;20045;-77
2022/11/25 05:32:18;;;;;;;25.35;8.02;;;7.80;99.90;;;;;;5063553;28;20529;-78
2022/11/25 05:34:44;;;;;;;20.90;7.25;;;7.80;99.90;;;;;;5077814;28;20036;-78
2022/11/25 05:37:12;;;;;;;23.75;7.60;;;7.80;99.90;;;;;;5065117;28;20133;-78
2022/11/25 05:39:48;;;;;;;21.65;7.53;;;7.80;99.90;;;;;;5076962;28;20047;-79
2022/11/25 05:42:14;;;;;;;21.27;7.28;;;7.90;99.90;;;;;;5079744;28;20501;-78
2022/11/25 05:44:40;;;;;;;22.35;7.60;;;7.80;99.90;;;;;;5075964;28;20040;-78
2022/11/25 05:47:05;;;;;;;20.42;7.45;;;8.40;99.90;;;;;;5058974;28;20037;-78
2022/11/25 05:49:31;;;;;;;19.33;7.82;;;7.90;99.90;;;;;;5062060;28;20052;-78
2022/11/25 05:51:57;;;;;;;22.55;8.07;;;7.90;99.90;;;;;;5080441;28;20092;-78
2022/11/25 05:54:23;;;;;;;23.23;7.68;;;7.90;99.90;;;;;;5055505;28;20089;-78
2022/11/25 05:56:48;;;;;;;20.55;7.70;;;7.90;99.90;;;;;;5062431;28;20054;-78
2022/11/25 05:59:14;;;;;;;22.77;7.70;;;7.90;99.90;;;;;;5080719;28;20331;-78
2022/11/25 06:01:40;;;;;;;23.95;8.40;;;7.90;99.90;;;;;;5076821;28;20487;-78
2022/11/25 06:04:05;;;;;;;27.23;8.43;;;7.90;99.90;;;;;;5060687;28;20040;-78
2022/11/25 06:06:31;;;;;;;24.50;7.97;;;7.90;99.90;;;;;;5086647;28;20406;-78
2022/11/25 06:08:58;;;;;;;21.35;8.45;;;7.90;99.90;;;;;;5082010;28;20375;-78
2022/11/25 06:11:24;;;;;;;25.58;8.90;;;7.90;99.90;;;;;;5078539;28;20036;-78
2022/11/25 06:13:50;;;;;;;21.88;8.45;;;7.90;99.90;;;;;;5083042;28;20048;-78
2022/11/25 06:16:21;;;;;;;24.65;8.80;;;7.90;99.90;;;;;;5085194;28;20031;-78
2022/11/25 06:18:48;;;;;;;25.88;8.85;;;7.90;99.90;;;;;;5062248;28;20118;-78
2022/11/25 06:21:14;;;;;;;26.30;8.82;;;7.90;99.90;;;;;;5079767;28;20062;-79
2022/11/25 06:23:40;;;;;;;26.17;8.73;;;8.00;99.90;;;;;;5076856;28;20068;-79
2022/11/25 06:26:10;;;;;;;22.38;9.10;;;8.00;99.90;;;;;;5078559;28;20143;-79
2022/11/25 06:28:36;;;;;;;24.80;9.77;;;8.00;99.90;;;;;;5077898;28;20036;-79
2022/11/25 06:31:28;;;;;;;22.60;9.68;;;8.00;99.90;;;;;;5086310;28;20063;-80
2022/11/25 06:33:54;;;;;;;26.05;9.40;;;8.00;99.90;;;;;;5057765;28;20052;-79
2022/11/25 06:36:21;;;;;;;24.85;9.82;;;8.00;99.90;;;;;;5051419;28;20429;-78
2022/11/25 06:38:50;;;;;;;23.05;9.50;;;8.00;99.90;;;;;;5093266;28;20036;-79
2022/11/25 06:41:16;;;;;;;25.92;9.13;;;8.00;99.90;;;;;;5059483;28;20044;-79
2022/11/25 06:43:42;;;;;;;24.45;9.32;;;8.00;99.90;;;;;;5087865;28;20059;-79
2022/11/25 06:46:14;;;;;;;23.52;9.40;;;8.10;99.90;;;;;;5069151;28;20502;-79
2022/11/25 06:48:40;;;;;;;23.55;9.45;;;9.60;99.90;;;;;;5069565;28;20440;-79
2022/11/25 06:51:09;;;;;;;26.65;10.00;;;8.00;99.90;;;;;;5070809;28;20072;-79
2022/11/25 06:53:35;;;;;;;20.98;8.85;;;8.10;99.90;;;;;;5070673;28;20103;-79
2022/11/25 06:56:02;;;;;;;22.92;8.13;;;8.10;99.90;;;;;;5075493;28;20170;-77
2022/11/25 06:58:29;;;;;;;26.25;8.93;;;8.10;99.90;;;;;;5086359;28;20448;-78
2022/11/25 07:01:10;;;;;;;19.58;8.65;;;9.00;99.90;;;;;;5081602;28;20059;-78
2022/11/25 07:03:36;;;;;;;17.90;8.85;;;8.10;99.90;;;;;;5087756;28;20051;-79
2022/11/25 07:06:02;;;;;;;21.58;8.13;;;8.10;99.90;;;;;;5060838;28;20040;-78
2022/11/25 07:08:29;;;;;;;21.55;7.72;;;8.10;99.90;;;;;;5088458;28;20084;-78
2022/11/25 07:10:55;;;;;;;21.08;7.95;;;8.10;99.90;;;;;;5045176;28;20063;-78
2022/11/25 07:13:23;;;;;;;19.20;7.78;;;8.10;99.90;;;;;;5062101;28;20389;-79
2022/11/25 07:15:49;;;;;;;20.50;8.15;;;8.20;99.90;;;;;;5071879;28;20119;-78
2022/11/25 07:18:14;;;;;;;19.25;7.95;;;8.20;99.90;;;;;;5062018;28;20440;-79
2022/11/25 07:20:40;;;;;;;18.85;7.28;;;8.20;99.90;;;;;;5065867;28;20044;-78
2022/11/25 07:23:06;;;;;;;19.17;7.93;;;8.20;99.90;;;;;;5061091;28;20109;-79
2022/11/25 07:25:32;;;;;;;19.67;7.13;;;8.20;99.90;;;;;;5065121;28;20040;-79
2022/11/25 07:27:58;;;;;;;19.13;7.10;;;8.20;99.90;;;;;;5089362;28;20106;-78
2022/11/25 07:30:24;;;;;;;21.98;7.20;;;8.20;99.90;;;;;;5084046;28;20052;-78
2022/11/25 07:32:50;;;;;;;20.75;7.70;;;8.50;99.90;;;;;;5052400;28;20131;-78
2022/11/25 07:35:16;;;;;;;17.77;7.30;;;8.20;99.90;;;;;;5046768;28;20181;-78
2022/11/25 07:37:42;;;;;;;18.83;6.80;;;8.20;99.90;;;;;;5075985;28;20557;-77
2022/11/25 07:40:08;;;;;;;19.17;6.72;;;8.20;99.90;;;;;;5073455;28;20046;-77
2022/11/25 07:42:34;;;;;;;22.05;6.40;;;8.20;99.90;;;;;;5082138;28;20115;-78
2022/11/25 07:45:03;;;;;;;18.70;6.10;;;8.20;99.90;;;;;;5084292;28;20101;-78
2022/11/25 07:47:28;;;;;;;18.35;5.88;;;8.20;99.90;;;;;;5077747;28;20171;-78
2022/11/25 07:49:54;;;;;;;18.42;6.00;;;8.20;99.90;;;;;;5061661;28;20136;-78
2022/11/25 07:52:20;;;;;;;19.70;5.82;;;7.90;99.90;;;;;;5073984;28;20032;-79
2022/11/25 07:54:46;;;;;;;15.85;5.07;;;8.50;99.90;;;;;;5082014;28;20047;-77
2022/11/25 07:57:11;;;;;;;20.45;5.75;;;8.20;99.90;;;;;;5080121;28;20110;-78
2022/11/25 07:59:40;;;;;;;18.20;5.32;;;8.20;99.90;;;;;;5052077;28;20351;-78
2022/11/25 08:02:07;;;;;;;16.73;5.25;;;8.20;99.90;;;;;;5078778;28;20462;-78
2022/11/25 08:04:33;;;;;;;15.55;5.57;;;8.20;99.90;;;;;;5074484;28;20041;-78
2022/11/25 08:06:59;;;;;;;14.40;5.07;;;8.20;99.90;;;;;;5079294;28;20040;-77
2022/11/25 08:09:25;;;;;;;14.90;4.95;;;8.30;99.90;;;;;;5061170;28;20055;-78
2022/11/25 08:11:52;;;;;;;13.02;5.05;;;8.30;99.90;;;;;;5046944;28;20388;-77
2022/11/25 08:14:18;;;;;;;14.38;4.90;;;8.30;99.90;;;;;;5078119;28;20396;-78
2022/11/25 08:16:44;;;;;;;14.30;4.97;;;8.30;99.90;;;;;;5083153;28;20128;-78
2022/11/25 08:19:13;;;;;;;14.25;5.22;;;8.40;99.90;;;;;;5061341;28;20435;-78
2022/11/25 08:21:39;;;;;;;14.00;5.13;;;8.40;99.90;;;;;;5076955;28;20098;-78
2022/11/25 08:24:05;;;;;;;13.65;4.68;;;8.40;99.90;;;;;;5081789;28;20032;-77
2022/11/25 08:26:35;;;;;;;17.45;4.85;;;9.60;99.90;;;;;;5065056;28;20508;-78
2022/11/25 08:29:02;;;;;;;15.52;4.38;;;8.50;99.90;;;;;;5073034;28;20054;-78
2022/11/25 08:31:33;;;;;;;13.15;4.38;;;8.40;99.90;;;;;;5071667;28;20546;-78
2022/11/25 08:34:00;;;;;;;14.18;4.30;;;8.50;99.90;;;;;;5072289;28;20474;-78
2022/11/25 08:36:27;;;;;;;14.02;4.03;;;8.50;99.90;;;;;;5084081;28;20047;-78
2022/11/25 08:38:56;;;;;;;11.95;4.15;;;8.50;99.90;;;;;;5078841;28;20048;-78
2022/11/25 08:41:34;;;;;;;13.75;4.30;;;8.50;99.90;;;;;;5076537;28;20119;-79
2022/11/25 08:44:01;;;;;;;14.02;4.25;;;8.60;99.90;;;;;;5080445;28;20036;-77
2022/11/25 08:46:32;;;;;;;14.10;4.32;;;8.50;99.90;;;;;;5079228;28;20733;-78
2022/11/25 08:48:58;;;;;;;11.52;3.80;;;8.60;99.90;;;;;;5072831;28;20602;-77
2022/11/25 08:51:30;;;;;;;14.82;3.80;;;9.40;99.90;;;;;;5077924;28;20117;-77
2022/11/25 08:53:56;;;;;;;14.32;3.70;;;8.80;99.90;;;;;;5079504;28;20043;-78
2022/11/25 08:56:23;;;;;;;12.82;3.90;;;8.60;99.90;;;;;;5058030;28;20039;-78
2022/11/25 08:58:52;;;;;;;15.20;4.22;;;8.60;99.90;;;;;;5070686;28;20063;-78
2022/11/25 09:01:19;;;;;;;12.32;4.10;;;8.70;99.90;;;;;;5070721;28;20037;-78
2022/11/25 09:03:48;;;;;;;12.38;4.30;;;8.70;99.90;;;;;;5056316;28;20098;-77
2022/11/25 09:06:14;;;;;;;13.82;4.00;;;8.70;99.90;;;;;;5060275;28;20786;-77
2022/11/25 09:08:41;;;;;;;14.43;4.10;;;8.70;99.90;;;;;;5073492;28;20054;-77
2022/11/25 09:11:08;;;;;;;15.80;4.25;;;7.90;99.90;;;;;;5073304;28;20048;-77
2022/11/25 09:13:34;;;;;;;10.98;3.53;;;8.70;99.90;;;;;;5079158;28;20656;-78
2022/11/25 09:16:03;;;;;;;13.90;4.15;;;8.70;99.90;;;;;;5081283;28;20509;-78
2022/11/25 09:18:30;;;;;;;11.43;3.90;;;8.70;99.90;;;;;;5075458;28;20040;-78
2022/11/25 09:20:57;;;;;;;13.38;4.38;;;8.70;99.90;;;;;;5063001;28;20082;-78
2022/11/25 09:23:24;;;;;;;10.77;3.85;;;8.80;99.90;;;;;;5079898;28;20047;-79
2022/11/25 09:25:54;;;;;;;13.77;4.00;;;8.80;99.90;;;;;;5077820;28;20385;-79
2022/11/25 09:28:21;;;;;;;13.55;4.72;;;8.80;99.90;;;;;;5075239;28;20042;-77
2022/11/25 09:30:47;;;;;;;13.73;3.85;;;8.90;99.90;;;;;;5062947;28;20076;-78
2022/11/25 09:33:13;;;;;;;13.27;4.93;;;8.90;99.90;;;;;;5076755;28;20032;-78
2022/11/25 09:35:39;;;;;;;15.52;4.40;;;9.00;99.90;;;;;;5073891;28;20271;-78
2022/11/25 09:38:05;;;;;;;13.05;4.53;;;9.00;99.90;;;;;;5059802;28;20036;-78
2022/11/25 09:40:30;;;;;;;15.45;4.53;;;10.20;99.90;;;;;;5076738;28;20036;-79
2022/11/25 09:46:43;;;;;;;14.10;4.10;;;9.10;99.90;;;;;;5081971;28;20041;-78
2022/11/25 09:49:27;;;;;;;12.07;3.85;;;9.20;99.90;;;;;;5064653;28;20053;-78
2022/11/25 09:51:55;;;;;;;11.57;3.70;;;9.20;99.90;;;;;;5082185;28;20036;-78
2022/11/25 09:54:33;;;;;;;14.02;3.92;;;9.30;99.90;;;;;;5079114;28;20028;-78
2022/11/25 09:57:28;;;;;;;13.52;4.00;;;9.30;99.90;;;;;;5073270;28;20031;-78
2022/11/25 10:00:04;;;;;;;13.75;4.13;;;9.30;99.90;;;;;;5071614;28;20044;-78
2022/11/25 10:02:36;;;;;;;12.10;3.90;;;9.30;99.90;;;;;;5057325;28;20040;-78
2022/11/25 10:05:28;;;;;;;13.73;3.88;;;9.40;99.90;;;;;;5083030;28;20051;-78
2022/11/25 10:08:02;;;;;;;10.65;3.80;;;9.40;99.90;;;;;;5077709;28;20278;-78
2022/11/25 10:10:42;;;;;;;14.50;4.07;;;9.40;99.90;;;;;;5081725;28;20128;-78
2022/11/25 10:13:21;;;;;;;12.50;4.25;;;9.50;99.90;;;;;;5062532;28;20509;-78
2022/11/25 10:15:49;;;;;;;12.50;3.78;;;9.50;99.90;;;;;;5086733;28;20051;-78
2022/11/25 10:18:28;;;;;;;14.27;4.25;;;9.50;99.90;;;;;;5079941;28;20058;-79
2022/11/25 10:20:54;;;;;;;13.60;4.00;;;9.50;99.90;;;;;;5075482;28;20036;-78
2022/11/25 10:23:32;;;;;;;12.88;3.75;;;9.60;99.90;;;;;;5079961;28;20044;-78
2022/11/25 10:26:10;;;;;;;10.93;3.42;;;9.60;99.90;;;;;;5075572;28;20111;-78
2022/11/25 10:28:37;;;;;;;13.60;3.72;;;9.60;99.90;;;;;;5080000;28;20123;-77
2022/11/25 10:31:13;;;;;;;11.55;4.00;;;9.70;99.90;;;;;;5068736;28;20036;-78
2022/11/25 10:33:47;;;;;;;13.18;3.60;;;9.70;99.90;;;;;;5081996;28;20128;-79
2022/11/25 10:36:20;;;;;;;14.13;3.75;;;9.70;99.90;;;;;;5080588;28;20040;-78
2022/11/25 10:39:00;;;;;;;12.27;3.70;;;9.80;99.90;;;;;;5080053;28;20043;-78
2022/11/25 10:41:30;;;;;;;13.57;3.63;;;9.80;99.90;;;;;;5074831;28;20033;-78
2022/11/25 10:43:56;;;;;;;11.23;3.60;;;10.20;99.90;;;;;;5077538;28;20027;-78
2022/11/25 10:46:22;;;;;;;11.75;3.50;;;9.90;99.90;;;;;;5078411;28;20028;-78
2022/11/25 10:49:12;;;;;;;11.70;3.72;;;9.90;99.90;;;;;;5079310;28;20404;-77
2022/11/25 10:51:45;;;;;;;13.52;3.70;;;10.00;99.90;;;;;;5078594;28;20130;-77
2022/11/25 10:54:12;;;;;;;11.32;3.65;;;10.00;99.90;;;;;;5083990;28;20597;-78
2022/11/25 10:56:51;;;;;;;15.65;3.65;;;10.10;99.90;;;;;;5078243;28;20397;-78
2022/11/25 10:59:32;;;;;;;11.80;3.80;;;10.10;99.90;;;;;;5083129;28;20047;-78
2022/11/25 11:02:18;;;;;;;10.98;3.70;;;10.00;99.90;;;;;;5079127;28;20108;-77
2022/11/25 11:05:08;;;;;;;14.27;3.70;;;10.10;99.90;;;;;;5080235;28;20059;-79
2022/11/25 11:07:42;;;;;;;14.80;3.85;;;10.00;99.90;;;;;;5073913;28;20071;-78
2022/11/25 11:10:14;;;;;;;12.95;3.55;;;9.90;99.90;;;;;;5070393;28;20086;-77
2022/11/25 11:12:54;;;;;;;16.73;3.40;;;9.90;99.90;;;;;;5068592;28;20078;-78
2022/11/25 11:15:23;;;;;;;13.15;3.13;;;9.90;99.90;;;;;;5070830;28;20118;-78
2022/11/25 11:17:53;;;;;;;14.88;3.50;;;9.80;99.90;;;;;;5068140;28;20043;-78
2022/11/25 11:20:24;;;;;;;14.05;4.10;;;9.80;99.90;;;;;;5062856;28;20044;-78
2022/11/25 11:23:11;;;;;;;15.45;3.95;;;9.80;99.90;;;;;;5077873;28;20497;-79
2022/11/25 11:25:58;;;;;;;14.68;3.63;;;9.80;99.90;;;;;;5076117;28;20047;-78
2022/11/25 11:28:38;;;;;;;13.93;3.40;;;9.80;99.90;;;;;;5076466;28;20151;-78
2022/11/25 11:31:07;;;;;;;13.00;3.25;;;9.90;99.90;;;;;;5079946;28;20032;-77
2022/11/25 11:34:10;;;;;;;14.40;4.00;;;10.00;99.90;;;;;;5079440;28;20070;-78
2022/11/25 11:37:04;;;;;;;14.52;3.65;;;10.10;99.90;;;;;;5059126;28;20056;-78
2022/11/25 11:39:36;;;;;;;16.00;3.47;;;10.30;99.90;;;;;;5076922;28;20063;-78
2022/11/25 11:42:30;;;;;;;12.67;3.50;;;10.30;99.90;;;;;;5057125;28;20040;-78
2022/11/25 11:45:14;;;;;;;;;;;11.60;99.90;;;;;;5074810;28;20079;-78
2022/11/25 11:47:43;;;;;;;17.65;3.83;;;10.50;99.90;;;;;;5084934;28;20501;-78
2022/11/25 11:50:21;;;;;;;12.80;2.95;;;10.50;99.90;;;;;;5076084;28;20036;-78
2022/11/25 11:53:04;;;;;;;14.32;3.65;;;10.60;99.90;;;;;;5084400;28;20051;-77
2022/11/25 11:55:52;;;;;;;11.68;3.08;;;10.70;99.90;;;;;;5077073;28;20238;-77
2022/11/25 11:58:43;;;;;;;14.45;2.97;;;10.70;99.90;;;;;;5071734;28;20605;-78
2022/11/25 12:01:14;;;;;;;11.43;2.75;;;10.70;99.90;;;;;;5077403;28;20379;-77
2022/11/25 12:04:21;;;;;;;12.27;2.95;;;10.70;99.90;;;;;;5073245;28;20408;-77
2022/11/25 12:07:48;;;;;;;13.10;3.17;;;12.10;99.90;;;;;;5023753;28;20056;-77
2022/11/25 12:10:14;;;;;;;14.38;3.00;;;10.60;99.90;;;;;;4983958;28;20041;-78
2022/11/25 12:13:01;;;;;;;13.48;3.05;;;10.60;99.90;;;;;;5053724;28;20047;-77
2022/11/25 12:15:54;;;;;;;13.23;3.17;;;10.60;99.90;;;;;;5083409;28;20047;-78
2022/11/25 12:18:54;;;;;;;12.77;2.88;;;10.70;99.90;;;;;;5059881;28;20762;-78
2022/11/25 12:21:54;;;;;;;12.40;2.92;;;10.70;99.90;;;;;;5073347;28;20569;-78
2022/11/25 12:24:53;;;;;;;13.57;2.80;;;10.70;99.90;;;;;;5079453;28;20040;-78
2022/11/25 12:27:26;;;;;;;11.82;2.65;;;10.70;99.90;;;;;;5076228;28;20185;-77
2022/11/25 12:30:05;;;;;;;14.02;3.35;;;10.70;99.90;;;;;;5071732;28;20139;-79
2022/11/25 12:32:40;;;;;;;13.15;2.90;;;10.90;99.90;;;;;;5083242;28;20039;-78
2022/11/25 12:35:11;;;;;;;12.73;2.80;;;11.00;99.90;;;;;;5085141;28;20042;-77
2022/11/25 12:38:10;;;;;;;14.98;3.10;;;11.00;99.90;;;;;;5071174;28;20041;-78
2022/11/25 12:41:05;;;;;;;16.13;3.13;;;11.10;99.90;;;;;;5067790;28;20041;-78
2022/11/25 12:43:49;;;;;;;13.93;2.85;;;11.20;99.90;;;;;;5032669;28;20078;-78
2022/11/25 12:46:38;;;;;;;15.40;3.42;;;11.30;99.90;;;;;;5071038;28;20049;-78
2022/11/25 12:49:12;;;;;;;13.48;2.92;;;11.40;99.90;;;;;;5080087;28;20040;-77
2022/11/25 12:52:16;;;;;;;13.85;2.72;;;11.40;99.90;;;;;;5078180;28;20033;-77
2022/11/25 12:55:08;;;;;;;17.10;3.47;;;11.30;99.90;;;;;;5082268;28;20037;-79
2022/11/25 12:58:01;;;;;;;14.52;3.05;;;11.20;99.90;;;;;;5074849;28;20509;-77
2022/11/25 13:00:56;;;;;;;16.73;3.00;;;11.20;99.90;;;;;;5072589;28;20036;-77
2022/11/25 13:03:40;;;;;;;12.43;3.17;;;11.20;99.90;;;;;;5079005;28;20048;-77
2022/11/25 13:06:25;;;;;;;21.63;3.40;;;11.20;99.90;;;;;;5079317;28;20055;-78
2022/11/25 13:08:56;;;;;;;15.13;3.65;;;11.20;99.90;;;;;;5081082;28;20047;-77
2022/11/25 13:11:53;;;;;;;16.05;3.10;;;11.20;99.90;;;;;;5066992;28;20052;-77